sensor_id;sensor_type;location;lat;lon;timestamp;temperature;humidity
17815;DHT22;9031;50.974;11.330;2023-06-26T00:01:49;18.80;99.90
17815;DHT22;9031;50.974;11.330;2023-06-26T00:04:15;18.80;99.90
17815;DHT22;9031;50.974;11.330;2023-06-26T00:06:41;18.70;99.90
17815;DHT22;9031;50.974;11.330;2023-06-26T00:09:08;18.70;99.90
17815;DHT22;9031;50.974;11.330;2023-06-26T00:11:33;18.50;99.90
17815;DHT22;9031;50.974;11.330;2023-06-26T00:13:59;18.30;99.90
17815;DHT22;9031;50.974;11.330;2023-06-26T00:16:28;18.10;99.90
17815;DHT22;9031;50.974;11.330;2023-06-26T00:18:53;18.20;99.90
17815;DHT22;9031;50.974;11.330;2023-06-26T00:21:20;18.30;99.90
17815;DHT22;9031;50.974;11.330;2023-06-26T00:23:46;18.40;99.90
17815;DHT22;9031;50.974;11.330;2023-06-26T00:26:11;18.30;99.90
17815;DHT22;9031;50.974;11.330;2023-06-26T00:28:37;18.40;99.90
17815;DHT22;9031;50.974;11.330;2023-06-26T00:31:03;18.30;99.90
17815;DHT22;9031;50.974;11.330;2023-06-26T00:33:28;18.30;99.90
17815;DHT22;9031;50.974;11.330;2023-06-26T00:35:54;18.30;99.90
17815;DHT22;9031;50.974;11.330;2023-06-26T00:38:19;18.40;99.90
17815;DHT22;9031;50.974;11.330;2023-06-26T00:40:45;18.40;99.90
17815;DHT22;9031;50.974;11.330;2023-06-26T00:43:11;17.90;99.90
17815;DHT22;9031;50.974;11.330;2023-06-26T00:45:36;17.70;99.90
17815;DHT22;9031;50.974;11.330;2023-06-26T00:48:02;17.70;99.90
17815;DHT22;9031;50.974;11.330;2023-06-26T00:50:28;17.60;99.90
17815;DHT22;9031;50.974;11.330;2023-06-26T00:52:54;17.60;99.90
17815;DHT22;9031;50.974;11.330;2023-06-26T00:55:26;17.50;99.90
17815;DHT22;9031;50.974;11.330;2023-06-26T00:57:52;17.60;99.90
17815;DHT22;9031;50.974;11.330;2023-06-26T01:00:18;17.70;99.90
17815;DHT22;9031;50.974;11.330;2023-06-26T01:02:44;17.70;99.90
17815;DHT22;9031;50.974;11.330;2023-06-26T01:05:09;17.60;99.90
17815;DHT22;9031;50.974;11.330;2023-06-26T01:07:38;17.40;99.90
17815;DHT22;9031;50.974;11.330;2023-06-26T01:10:05;17.30;99.90
17815;DHT22;9031;50.974;11.330;2023-06-26T01:12:32;17.30;99.90
17815;DHT22;9031;50.974;11.330;2023-06-26T01:15:01;17.40;99.90
17815;DHT22;9031;50.974;11.330;2023-06-26T01:17:27;17.50;99.90
17815;DHT22;9031;50.974;11.330;2023-06-26T01:19:59;17.70;99.90
17815;DHT22;9031;50.974;11.330;2023-06-26T01:22:34;17.70;99.90
17815;DHT22;9031;50.974;11.330;2023-06-26T01:25:35;17.50;99.90
17815;DHT22;9031;50.974;11.330;2023-06-26T01:28:05;17.40;99.90
17815;DHT22;9031;50.974;11.330;2023-06-26T01:30:32;17.20;99.90
17815;DHT22;9031;50.974;11.330;2023-06-26T01:33:00;17.20;99.90
17815;DHT22;9031;50.974;11.330;2023-06-26T01:35:27;17.20;99.90
17815;DHT22;9031;50.974;11.330;2023-06-26T01:37:53;17.10;99.90
17815;DHT22;9031;50.974;11.330;2023-06-26T01:40:19;17.00;99.90
17815;DHT22;9031;50.974;11.330;2023-06-26T01:42:44;16.80;99.90
17815;DHT22;9031;50.974;11.330;2023-06-26T01:45:24;16.90;99.90
17815;DHT22;9031;50.974;11.330;2023-06-26T01:47:51;16.90;99.90
17815;DHT22;9031;50.974;11.330;2023-06-26T01:50:24;17.00;99.90
17815;DHT22;9031;50.974;11.330;2023-06-26T01:53:02;16.70;99.90
17815;DHT22;9031;50.974;11.330;2023-06-26T01:56:08;16.50;99.90
17815;DHT22;9031;50.974;11.330;2023-06-26T01:58:40;16.50;99.90
17815;DHT22;9031;50.974;11.330;2023-06-26T02:01:07;16.40;99.90
17815;DHT22;9031;50.974;11.330;2023-06-26T02:03:33;16.30;99.90
17815;DHT22;9031;50.974;11.330;2023-06-26T02:05:58;16.30;99.90
17815;DHT22;9031;50.974;11.330;2023-06-26T02:08:24;16.40;99.90
17815;DHT22;9031;50.974;11.330;2023-06-26T02:10:49;16.60;99.90
17815;DHT22;9031;50.974;11.330;2023-06-26T02:13:15;16.80;99.90
17815;DHT22;9031;50.974;11.330;2023-06-26T02:15:40;16.90;99.90
17815;DHT22;9031;50.974;11.330;2023-06-26T02:18:06;16.90;99.90
17815;DHT22;9031;50.974;11.330;2023-06-26T02:20:31;17.00;99.90
17815;DHT22;9031;50.974;11.330;2023-06-26T02:22:58;17.10;99.90
17815;DHT22;9031;50.974;11.330;2023-06-26T02:25:24;17.10;99.90
17815;DHT22;9031;50.974;11.330;2023-06-26T02:27:49;16.90;99.90
17815;DHT22;9031;50.974;11.330;2023-06-26T02:30:15;17.00;99.90
17815;DHT22;9031;50.974;11.330;2023-06-26T02:32:40;17.00;99.90
17815;DHT22;9031;50.974;11.330;2023-06-26T02:35:06;17.00;99.90
17815;DHT22;9031;50.974;11.330;2023-06-26T02:37:32;16.90;99.90
17815;DHT22;9031;50.974;11.330;2023-06-26T02:39:58;17.00;99.90
17815;DHT22;9031;50.974;11.330;2023-06-26T02:42:23;17.00;99.90
17815;DHT22;9031;50.974;11.330;2023-06-26T02:44:48;17.10;99.90
17815;DHT22;9031;50.974;11.330;2023-06-26T02:47:14;16.90;99.90
17815;DHT22;9031;50.974;11.330;2023-06-26T02:49:39;16.60;99.90
17815;DHT22;9031;50.974;11.330;2023-06-26T02:52:05;16.40;99.90
17815;DHT22;9031;50.974;11.330;2023-06-26T02:54:31;16.20;99.90
17815;DHT22;9031;50.974;11.330;2023-06-26T02:56:56;16.30;99.90
17815;DHT22;9031;50.974;11.330;2023-06-26T02:59:22;16.30;99.90
17815;DHT22;9031;50.974;11.330;2023-06-26T03:01:47;16.30;99.90
17815;DHT22;9031;50.974;11.330;2023-06-26T03:04:13;16.50;99.90
17815;DHT22;9031;50.974;11.330;2023-06-26T03:06:40;16.30;99.90
17815;DHT22;9031;50.974;11.330;2023-06-26T03:09:06;16.20;99.90
17815;DHT22;9031;50.974;11.330;2023-06-26T03:11:31;16.40;99.90
17815;DHT22;9031;50.974;11.330;2023-06-26T03:13:56;16.60;99.90
17815;DHT22;9031;50.974;11.330;2023-06-26T03:16:22;16.70;99.90
17815;DHT22;9031;50.974;11.330;2023-06-26T03:18:47;16.80;99.90
17815;DHT22;9031;50.974;11.330;2023-06-26T03:21:13;16.80;99.90
17815;DHT22;9031;50.974;11.330;2023-06-26T03:23:38;16.90;99.90
17815;DHT22;9031;50.974;11.330;2023-06-26T03:26:04;16.90;99.90
17815;DHT22;9031;50.974;11.330;2023-06-26T03:28:29;16.90;99.90
17815;DHT22;9031;50.974;11.330;2023-06-26T03:30:56;16.90;99.90
17815;DHT22;9031;50.974;11.330;2023-06-26T03:33:22;16.90;99.90
17815;DHT22;9031;50.974;11.330;2023-06-26T03:35:47;16.90;99.90
17815;DHT22;9031;50.974;11.330;2023-06-26T03:38:13;16.90;99.90
17815;DHT22;9031;50.974;11.330;2023-06-26T03:40:38;16.80;99.90
17815;DHT22;9031;50.974;11.330;2023-06-26T03:43:04;16.70;99.90
17815;DHT22;9031;50.974;11.330;2023-06-26T03:45:29;16.70;99.90
17815;DHT22;9031;50.974;11.330;2023-06-26T03:47:55;16.50;99.90
17815;DHT22;9031;50.974;11.330;2023-06-26T03:50:20;16.60;99.90
17815;DHT22;9031;50.974;11.330;2023-06-26T03:52:46;16.60;99.90
17815;DHT22;9031;50.974;11.330;2023-06-26T03:55:11;16.50;99.90
17815;DHT22;9031;50.974;11.330;2023-06-26T03:57:37;16.60;99.90
17815;DHT22;9031;50.974;11.330;2023-06-26T04:00:03;16.40;99.90
17815;DHT22;9031;50.974;11.330;2023-06-26T04:02:34;16.20;99.90
17815;DHT22;9031;50.974;11.330;2023-06-26T04:05:00;16.20;99.90
17815;DHT22;9031;50.974;11.330;2023-06-26T04:07:26;16.40;99.90
17815;DHT22;9031;50.974;11.330;2023-06-26T04:09:51;16.50;99.90
17815;DHT22;9031;50.974;11.330;2023-06-26T04:12:17;16.60;99.90
17815;DHT22;9031;50.974;11.330;2023-06-26T04:14:42;16.70;99.90
17815;DHT22;9031;50.974;11.330;2023-06-26T04:17:08;16.50;99.90
17815;DHT22;9031;50.974;11.330;2023-06-26T04:19:33;16.50;99.90
17815;DHT22;9031;50.974;11.330;2023-06-26T04:22:01;16.70;99.90
17815;DHT22;9031;50.974;11.330;2023-06-26T04:24:26;16.60;99.90
17815;DHT22;9031;50.974;11.330;2023-06-26T04:26:52;16.60;99.90
17815;DHT22;9031;50.974;11.330;2023-06-26T04:29:17;16.70;99.90
17815;DHT22;9031;50.974;11.330;2023-06-26T04:31:43;16.70;99.90
17815;DHT22;9031;50.974;11.330;2023-06-26T04:34:13;16.80;99.90
17815;DHT22;9031;50.974;11.330;2023-06-26T04:36:38;17.00;99.90
17815;DHT22;9031;50.974;11.330;2023-06-26T04:39:05;17.40;99.90
17815;DHT22;9031;50.974;11.330;2023-06-26T04:41:30;17.70;99.90
17815;DHT22;9031;50.974;11.330;2023-06-26T04:43:56;17.80;99.90
17815;DHT22;9031;50.974;11.330;2023-06-26T04:46:21;17.90;99.90
17815;DHT22;9031;50.974;11.330;2023-06-26T04:48:47;18.20;99.90
17815;DHT22;9031;50.974;11.330;2023-06-26T04:51:12;18.20;99.90
17815;DHT22;9031;50.974;11.330;2023-06-26T04:53:38;18.30;99.90
17815;DHT22;9031;50.974;11.330;2023-06-26T04:56:03;18.50;99.90
17815;DHT22;9031;50.974;11.330;2023-06-26T04:58:29;18.70;99.90
17815;DHT22;9031;50.974;11.330;2023-06-26T05:00:55;18.70;99.90
17815;DHT22;9031;50.974;11.330;2023-06-26T05:03:21;18.70;99.90
17815;DHT22;9031;50.974;11.330;2023-06-26T05:05:47;18.90;99.90
17815;DHT22;9031;50.974;11.330;2023-06-26T05:08:17;19.10;99.90
17815;DHT22;9031;50.974;11.330;2023-06-26T05:10:43;19.30;99.90
17815;DHT22;9031;50.974;11.330;2023-06-26T05:13:08;19.50;99.90
17815;DHT22;9031;50.974;11.330;2023-06-26T05:15:34;19.60;99.90
17815;DHT22;9031;50.974;11.330;2023-06-26T05:17:59;19.80;99.90
17815;DHT22;9031;50.974;11.330;2023-06-26T05:20:25;20.00;99.90
17815;DHT22;9031;50.974;11.330;2023-06-26T05:22:50;20.10;99.90
17815;DHT22;9031;50.974;11.330;2023-06-26T05:25:18;20.30;99.90
17815;DHT22;9031;50.974;11.330;2023-06-26T05:27:46;20.40;99.90
17815;DHT22;9031;50.974;11.330;2023-06-26T05:30:13;20.60;99.90
17815;DHT22;9031;50.974;11.330;2023-06-26T05:32:40;20.70;99.90
17815;DHT22;9031;50.974;11.330;2023-06-26T05:35:06;20.90;99.90
17815;DHT22;9031;50.974;11.330;2023-06-26T05:37:32;21.10;99.90
17815;DHT22;9031;50.974;11.330;2023-06-26T05:39:58;21.30;99.90
17815;DHT22;9031;50.974;11.330;2023-06-26T05:42:24;21.50;99.90
17815;DHT22;9031;50.974;11.330;2023-06-26T05:44:49;21.60;99.90
17815;DHT22;9031;50.974;11.330;2023-06-26T05:47:15;21.60;99.90
17815;DHT22;9031;50.974;11.330;2023-06-26T05:49:41;21.80;99.90
17815;DHT22;9031;50.974;11.330;2023-06-26T05:52:07;22.00;99.90
17815;DHT22;9031;50.974;11.330;2023-06-26T05:54:32;22.10;99.90
17815;DHT22;9031;50.974;11.330;2023-06-26T05:56:58;22.20;99.90
17815;DHT22;9031;50.974;11.330;2023-06-26T05:59:25;22.40;99.90
17815;DHT22;9031;50.974;11.330;2023-06-26T06:01:51;22.50;99.90
17815;DHT22;9031;50.974;11.330;2023-06-26T06:04:17;22.60;99.90
17815;DHT22;9031;50.974;11.330;2023-06-26T06:06:42;22.80;99.90
17815;DHT22;9031;50.974;11.330;2023-06-26T06:09:08;23.00;99.90
17815;DHT22;9031;50.974;11.330;2023-06-26T06:11:33;23.10;99.90
17815;DHT22;9031;50.974;11.330;2023-06-26T06:13:59;23.30;99.90
17815;DHT22;9031;50.974;11.330;2023-06-26T06:16:25;23.50;99.90
17815;DHT22;9031;50.974;11.330;2023-06-26T06:18:51;23.60;99.90
17815;DHT22;9031;50.974;11.330;2023-06-26T06:21:16;23.60;99.90
17815;DHT22;9031;50.974;11.330;2023-06-26T06:23:42;23.80;99.90
17815;DHT22;9031;50.974;11.330;2023-06-26T06:26:07;23.70;99.90
17815;DHT22;9031;50.974;11.330;2023-06-26T06:28:33;23.90;99.90
17815;DHT22;9031;50.974;11.330;2023-06-26T06:30:58;24.20;99.90
17815;DHT22;9031;50.974;11.330;2023-06-26T06:33:24;24.30;99.90
17815;DHT22;9031;50.974;11.330;2023-06-26T06:35:49;24.50;99.90
17815;DHT22;9031;50.974;11.330;2023-06-26T06:38:15;24.70;99.90
17815;DHT22;9031;50.974;11.330;2023-06-26T06:40:40;24.80;99.90
17815;DHT22;9031;50.974;11.330;2023-06-26T06:43:06;25.00;99.90
17815;DHT22;9031;50.974;11.330;2023-06-26T06:45:31;25.30;99.90
17815;DHT22;9031;50.974;11.330;2023-06-26T06:47:57;25.40;99.90
17815;DHT22;9031;50.974;11.330;2023-06-26T06:50:22;25.50;99.90
17815;DHT22;9031;50.974;11.330;2023-06-26T06:52:48;25.70;99.90
17815;DHT22;9031;50.974;11.330;2023-06-26T06:55:13;26.00;99.90
17815;DHT22;9031;50.974;11.330;2023-06-26T06:57:39;26.30;99.90
17815;DHT22;9031;50.974;11.330;2023-06-26T07:00:15;26.40;99.90
17815;DHT22;9031;50.974;11.330;2023-06-26T07:02:43;26.60;99.90
17815;DHT22;9031;50.974;11.330;2023-06-26T07:05:10;26.90;99.90
17815;DHT22;9031;50.974;11.330;2023-06-26T07:07:36;27.00;99.90
17815;DHT22;9031;50.974;11.330;2023-06-26T07:10:09;27.10;99.90
17815;DHT22;9031;50.974;11.330;2023-06-26T07:12:35;27.30;99.90
17815;DHT22;9031;50.974;11.330;2023-06-26T07:15:02;27.10;98.90
17815;DHT22;9031;50.974;11.330;2023-06-26T07:17:28;27.10;98.70
17815;DHT22;9031;50.974;11.330;2023-06-26T07:19:53;27.20;99.10
17815;DHT22;9031;50.974;11.330;2023-06-26T07:22:19;27.40;97.80
17815;DHT22;9031;50.974;11.330;2023-06-26T07:24:46;27.60;96.80
17815;DHT22;9031;50.974;11.330;2023-06-26T07:27:14;27.50;97.00
17815;DHT22;9031;50.974;11.330;2023-06-26T07:29:39;27.50;96.70
17815;DHT22;9031;50.974;11.330;2023-06-26T07:32:05;27.80;97.00
17815;DHT22;9031;50.974;11.330;2023-06-26T07:34:30;28.10;96.80
17815;DHT22;9031;50.974;11.330;2023-06-26T07:36:56;28.20;96.70
17815;DHT22;9031;50.974;11.330;2023-06-26T07:39:21;28.10;95.20
17815;DHT22;9031;50.974;11.330;2023-06-26T07:41:47;28.20;95.60
17815;DHT22;9031;50.974;11.330;2023-06-26T07:44:12;28.30;94.30
17815;DHT22;9031;50.974;11.330;2023-06-26T07:46:39;28.20;94.60
17815;DHT22;9031;50.974;11.330;2023-06-26T07:49:05;28.50;94.90
17815;DHT22;9031;50.974;11.330;2023-06-26T07:51:30;28.60;94.10
17815;DHT22;9031;50.974;11.330;2023-06-26T07:53:56;28.70;92.30
17815;DHT22;9031;50.974;11.330;2023-06-26T07:56:21;28.90;91.30
17815;DHT22;9031;50.974;11.330;2023-06-26T07:58:47;29.20;91.50
17815;DHT22;9031;50.974;11.330;2023-06-26T08:01:12;29.40;91.70
17815;DHT22;9031;50.974;11.330;2023-06-26T08:03:38;29.30;90.40
17815;DHT22;9031;50.974;11.330;2023-06-26T08:06:03;29.10;89.50
17815;DHT22;9031;50.974;11.330;2023-06-26T08:08:29;29.10;88.90
17815;DHT22;9031;50.974;11.330;2023-06-26T08:10:55;29.10;90.60
17815;DHT22;9031;50.974;11.330;2023-06-26T08:13:20;29.20;89.90
17815;DHT22;9031;50.974;11.330;2023-06-26T08:15:46;29.40;90.50
17815;DHT22;9031;50.974;11.330;2023-06-26T08:18:11;29.40;86.50
17815;DHT22;9031;50.974;11.330;2023-06-26T08:20:36;29.40;86.00
17815;DHT22;9031;50.974;11.330;2023-06-26T08:23:03;29.60;84.30
17815;DHT22;9031;50.974;11.330;2023-06-26T08:25:29;29.70;83.80
17815;DHT22;9031;50.974;11.330;2023-06-26T08:27:55;29.90;84.50
17815;DHT22;9031;50.974;11.330;2023-06-26T08:30:21;29.70;82.60
17815;DHT22;9031;50.974;11.330;2023-06-26T08:32:46;29.60;82.80
17815;DHT22;9031;50.974;11.330;2023-06-26T08:35:12;29.80;81.80
17815;DHT22;9031;50.974;11.330;2023-06-26T08:37:38;29.90;83.10
17815;DHT22;9031;50.974;11.330;2023-06-26T08:40:04;29.90;79.30
17815;DHT22;9031;50.974;11.330;2023-06-26T08:42:29;30.00;78.60
17815;DHT22;9031;50.974;11.330;2023-06-26T08:44:55;29.90;79.80
17815;DHT22;9031;50.974;11.330;2023-06-26T08:47:21;30.10;80.00
17815;DHT22;9031;50.974;11.330;2023-06-26T08:50:10;30.00;79.70
17815;DHT22;9031;50.974;11.330;2023-06-26T08:52:43;30.10;81.00
17815;DHT22;9031;50.974;11.330;2023-06-26T08:55:10;30.20;77.90
17815;DHT22;9031;50.974;11.330;2023-06-26T08:57:37;30.40;78.20
17815;DHT22;9031;50.974;11.330;2023-06-26T09:00:03;30.40;77.60
17815;DHT22;9031;50.974;11.330;2023-06-26T09:02:29;30.20;78.20
17815;DHT22;9031;50.974;11.330;2023-06-26T09:04:54;30.30;76.20
17815;DHT22;9031;50.974;11.330;2023-06-26T09:07:20;30.70;77.10
17815;DHT22;9031;50.974;11.330;2023-06-26T09:09:46;31.00;74.50
17815;DHT22;9031;50.974;11.330;2023-06-26T09:12:12;31.10;74.00
17815;DHT22;9031;50.974;11.330;2023-06-26T09:14:38;31.10;74.10
17815;DHT22;9031;50.974;11.330;2023-06-26T09:17:04;31.00;71.80
17815;DHT22;9031;50.974;11.330;2023-06-26T09:19:29;31.00;72.50
17815;DHT22;9031;50.974;11.330;2023-06-26T09:21:55;31.00;72.80
17815;DHT22;9031;50.974;11.330;2023-06-26T09:24:21;31.40;73.40
17815;DHT22;9031;50.974;11.330;2023-06-26T09:26:49;31.50;69.00
17815;DHT22;9031;50.974;11.330;2023-06-26T09:29:15;31.70;70.60
17815;DHT22;9031;50.974;11.330;2023-06-26T09:31:43;31.70;69.70
17815;DHT22;9031;50.974;11.330;2023-06-26T09:34:09;31.60;65.40
17815;DHT22;9031;50.974;11.330;2023-06-26T09:36:35;31.50;65.90
17815;DHT22;9031;50.974;11.330;2023-06-26T09:39:05;31.50;65.20
17815;DHT22;9031;50.974;11.330;2023-06-26T09:41:37;31.90;65.80
17815;DHT22;9031;50.974;11.330;2023-06-26T09:44:06;32.00;66.50
17815;DHT22;9031;50.974;11.330;2023-06-26T09:46:33;32.40;67.70
17815;DHT22;9031;50.974;11.330;2023-06-26T09:49:02;32.50;65.60
17815;DHT22;9031;50.974;11.330;2023-06-26T09:51:30;32.60;64.00
17815;DHT22;9031;50.974;11.330;2023-06-26T09:53:56;32.50;62.40
17815;DHT22;9031;50.974;11.330;2023-06-26T09:56:22;32.80;62.60
17815;DHT22;9031;50.974;11.330;2023-06-26T09:58:49;32.20;59.90
17815;DHT22;9031;50.974;11.330;2023-06-26T10:01:14;32.20;60.80
17815;DHT22;9031;50.974;11.330;2023-06-26T10:03:40;32.70;59.60
17815;DHT22;9031;50.974;11.330;2023-06-26T10:06:07;33.20;57.80
17815;DHT22;9031;50.974;11.330;2023-06-26T10:08:34;33.20;58.30
17815;DHT22;9031;50.974;11.330;2023-06-26T10:11:03;33.10;58.50
17815;DHT22;9031;50.974;11.330;2023-06-26T10:13:32;33.40;58.90
17815;DHT22;9031;50.974;11.330;2023-06-26T10:16:00;33.90;58.20
17815;DHT22;9031;50.974;11.330;2023-06-26T10:18:27;33.90;58.40
17815;DHT22;9031;50.974;11.330;2023-06-26T10:20:55;34.00;57.80
17815;DHT22;9031;50.974;11.330;2023-06-26T10:23:23;33.90;57.20
17815;DHT22;9031;50.974;11.330;2023-06-26T10:25:52;33.90;57.20
17815;DHT22;9031;50.974;11.330;2023-06-26T10:28:20;34.20;57.00
17815;DHT22;9031;50.974;11.330;2023-06-26T10:30:48;33.60;56.80
17815;DHT22;9031;50.974;11.330;2023-06-26T10:33:14;34.10;56.40
17815;DHT22;9031;50.974;11.330;2023-06-26T10:35:44;34.30;55.60
17815;DHT22;9031;50.974;11.330;2023-06-26T10:38:10;33.90;56.50
17815;DHT22;9031;50.974;11.330;2023-06-26T10:40:46;34.20;56.30
17815;DHT22;9031;50.974;11.330;2023-06-26T10:43:16;34.50;55.80
17815;DHT22;9031;50.974;11.330;2023-06-26T10:45:46;34.70;54.40
17815;DHT22;9031;50.974;11.330;2023-06-26T10:48:15;34.30;54.10
17815;DHT22;9031;50.974;11.330;2023-06-26T10:50:41;34.00;55.00
17815;DHT22;9031;50.974;11.330;2023-06-26T10:53:15;34.30;53.70
17815;DHT22;9031;50.974;11.330;2023-06-26T10:55:49;35.50;52.20
17815;DHT22;9031;50.974;11.330;2023-06-26T11:03:38;37.10;48.70
17815;DHT22;9031;50.974;11.330;2023-06-26T11:08:46;38.20;47.80
17815;DHT22;9031;50.974;11.330;2023-06-26T11:11:14;38.50;46.20
17815;DHT22;9031;50.974;11.330;2023-06-26T11:13:41;38.50;47.20
17815;DHT22;9031;50.974;11.330;2023-06-26T11:16:06;39.10;47.20
17815;DHT22;9031;50.974;11.330;2023-06-26T11:18:32;39.30;45.00
17815;DHT22;9031;50.974;11.330;2023-06-26T11:21:08;39.30;45.00
17815;DHT22;9031;50.974;11.330;2023-06-26T11:23:36;39.60;44.20
17815;DHT22;9031;50.974;11.330;2023-06-26T11:26:22;39.60;43.60
17815;DHT22;9031;50.974;11.330;2023-06-26T11:28:49;39.60;42.40
17815;DHT22;9031;50.974;11.330;2023-06-26T11:31:29;38.60;43.10
17815;DHT22;9031;50.974;11.330;2023-06-26T11:34:05;39.60;42.70
17815;DHT22;9031;50.974;11.330;2023-06-26T11:36:33;39.50;43.50
17815;DHT22;9031;50.974;11.330;2023-06-26T11:39:03;39.30;42.40
17815;DHT22;9031;50.974;11.330;2023-06-26T11:41:32;39.40;42.20
17815;DHT22;9031;50.974;11.330;2023-06-26T11:44:08;40.40;41.60
17815;DHT22;9031;50.974;11.330;2023-06-26T11:46:35;40.70;41.50
17815;DHT22;9031;50.974;11.330;2023-06-26T11:49:05;40.40;42.00
17815;DHT22;9031;50.974;11.330;2023-06-26T11:51:31;39.90;41.60
17815;DHT22;9031;50.974;11.330;2023-06-26T11:54:00;40.40;41.30
17815;DHT22;9031;50.974;11.330;2023-06-26T11:56:26;41.30;40.10
17815;DHT22;9031;50.974;11.330;2023-06-26T12:01:41;41.00;40.50
17815;DHT22;9031;50.974;11.330;2023-06-26T12:04:08;38.60;43.60
17815;DHT22;9031;50.974;11.330;2023-06-26T12:06:36;39.00;42.40
17815;DHT22;9031;50.974;11.330;2023-06-26T12:09:05;39.30;42.40
17815;DHT22;9031;50.974;11.330;2023-06-26T12:11:31;37.80;44.00
17815;DHT22;9031;50.974;11.330;2023-06-26T12:13:58;36.30;46.50
17815;DHT22;9031;50.974;11.330;2023-06-26T12:16:23;35.90;47.20
17815;DHT22;9031;50.974;11.330;2023-06-26T12:18:49;36.20;47.60
17815;DHT22;9031;50.974;11.330;2023-06-26T12:24:00;35.50;48.70
17815;DHT22;9031;50.974;11.330;2023-06-26T12:26:26;34.20;50.20
17815;DHT22;9031;50.974;11.330;2023-06-26T12:28:53;33.80;51.60
17815;DHT22;9031;50.974;11.330;2023-06-26T12:31:20;33.80;52.80
17815;DHT22;9031;50.974;11.330;2023-06-26T12:33:47;33.80;52.30
17815;DHT22;9031;50.974;11.330;2023-06-26T12:36:13;34.20;51.00
17815;DHT22;9031;50.974;11.330;2023-06-26T12:38:40;34.70;49.80
17815;DHT22;9031;50.974;11.330;2023-06-26T12:41:05;34.00;49.70
17815;DHT22;9031;50.974;11.330;2023-06-26T12:43:38;34.00;51.10
17815;DHT22;9031;50.974;11.330;2023-06-26T12:46:05;33.70;51.50
17815;DHT22;9031;50.974;11.330;2023-06-26T12:48:41;34.10;50.80
17815;DHT22;9031;50.974;11.330;2023-06-26T12:51:10;36.00;49.80
17815;DHT22;9031;50.974;11.330;2023-06-26T12:53:36;37.50;46.30
17815;DHT22;9031;50.974;11.330;2023-06-26T12:56:02;37.90;46.80
17815;DHT22;9031;50.974;11.330;2023-06-26T12:58:27;37.50;45.00
17815;DHT22;9031;50.974;11.330;2023-06-26T13:00:53;35.40;47.10
17815;DHT22;9031;50.974;11.330;2023-06-26T13:03:19;33.90;50.20
17815;DHT22;9031;50.974;11.330;2023-06-26T13:05:46;33.20;51.00
17815;DHT22;9031;50.974;11.330;2023-06-26T13:08:11;32.60;52.70
17815;DHT22;9031;50.974;11.330;2023-06-26T13:10:37;31.90;53.80
17815;DHT22;9031;50.974;11.330;2023-06-26T13:13:03;31.30;57.00
17815;DHT22;9031;50.974;11.330;2023-06-26T13:15:28;30.80;60.20
17815;DHT22;9031;50.974;11.330;2023-06-26T13:17:53;29.70;64.70
17815;DHT22;9031;50.974;11.330;2023-06-26T13:20:19;29.40;66.90
17815;DHT22;9031;50.974;11.330;2023-06-26T13:22:44;29.20;68.70
17815;DHT22;9031;50.974;11.330;2023-06-26T13:25:11;29.40;69.00
17815;DHT22;9031;50.974;11.330;2023-06-26T13:27:37;30.10;68.10
17815;DHT22;9031;50.974;11.330;2023-06-26T13:30:02;30.30;67.30
17815;DHT22;9031;50.974;11.330;2023-06-26T13:32:28;30.20;67.70
17815;DHT22;9031;50.974;11.330;2023-06-26T13:34:54;31.50;66.20
17815;DHT22;9031;50.974;11.330;2023-06-26T13:37:19;33.00;63.00
17815;DHT22;9031;50.974;11.330;2023-06-26T13:39:45;33.50;62.80
17815;DHT22;9031;50.974;11.330;2023-06-26T13:42:17;34.30;61.60
17815;DHT22;9031;50.974;11.330;2023-06-26T13:44:43;33.80;63.10
17815;DHT22;9031;50.974;11.330;2023-06-26T13:47:12;33.40;65.10
17815;DHT22;9031;50.974;11.330;2023-06-26T13:49:38;34.20;63.40
17815;DHT22;9031;50.974;11.330;2023-06-26T13:52:03;34.40;62.50
17815;DHT22;9031;50.974;11.330;2023-06-26T13:54:29;34.40;62.00
17815;DHT22;9031;50.974;11.330;2023-06-26T13:56:54;34.10;63.50
17815;DHT22;9031;50.974;11.330;2023-06-26T13:59:23;33.20;66.00
17815;DHT22;9031;50.974;11.330;2023-06-26T14:01:50;32.20;68.60
17815;DHT22;9031;50.974;11.330;2023-06-26T14:04:16;31.90;69.50
17815;DHT22;9031;50.974;11.330;2023-06-26T14:06:41;31.70;69.50
17815;DHT22;9031;50.974;11.330;2023-06-26T14:09:07;30.70;72.10
17815;DHT22;9031;50.974;11.330;2023-06-26T14:11:34;30.90;72.10
17815;DHT22;9031;50.974;11.330;2023-06-26T14:14:00;31.60;70.70
17815;DHT22;9031;50.974;11.330;2023-06-26T14:16:25;32.10;69.40
17815;DHT22;9031;50.974;11.330;2023-06-26T14:18:51;32.10;68.40
17815;DHT22;9031;50.974;11.330;2023-06-26T14:21:16;31.20;70.00
17815;DHT22;9031;50.974;11.330;2023-06-26T14:23:42;30.00;74.30
17815;DHT22;9031;50.974;11.330;2023-06-26T14:26:08;29.20;76.90
17815;DHT22;9031;50.974;11.330;2023-06-26T14:28:33;28.70;78.20
17815;DHT22;9031;50.974;11.330;2023-06-26T14:30:59;28.90;77.60
17815;DHT22;9031;50.974;11.330;2023-06-26T14:33:24;29.60;76.80
17815;DHT22;9031;50.974;11.330;2023-06-26T14:35:50;30.60;73.10
17815;DHT22;9031;50.974;11.330;2023-06-26T14:38:15;30.90;72.20
17815;DHT22;9031;50.974;11.330;2023-06-26T14:40:41;30.40;72.20
17815;DHT22;9031;50.974;11.330;2023-06-26T14:43:06;29.80;75.40
17815;DHT22;9031;50.974;11.330;2023-06-26T14:45:32;30.60;73.50
17815;DHT22;9031;50.974;11.330;2023-06-26T14:47:57;31.00;71.50
17815;DHT22;9031;50.974;11.330;2023-06-26T14:50:22;30.10;74.50
17815;DHT22;9031;50.974;11.330;2023-06-26T14:52:48;29.50;76.60
17815;DHT22;9031;50.974;11.330;2023-06-26T14:55:13;30.10;75.30
17815;DHT22;9031;50.974;11.330;2023-06-26T14:57:39;31.00;73.60
17815;DHT22;9031;50.974;11.330;2023-06-26T15:00:05;31.40;72.60
17815;DHT22;9031;50.974;11.330;2023-06-26T15:02:31;31.40;72.20
17815;DHT22;9031;50.974;11.330;2023-06-26T15:04:57;31.20;72.30
17815;DHT22;9031;50.974;11.330;2023-06-26T15:07:22;31.10;72.60
17815;DHT22;9031;50.974;11.330;2023-06-26T15:09:48;31.40;72.70
17815;DHT22;9031;50.974;11.330;2023-06-26T15:12:13;31.60;71.90
17815;DHT22;9031;50.974;11.330;2023-06-26T15:14:39;31.00;73.00
17815;DHT22;9031;50.974;11.330;2023-06-26T15:17:04;30.10;75.50
17815;DHT22;9031;50.974;11.330;2023-06-26T15:19:30;28.80;79.10
17815;DHT22;9031;50.974;11.330;2023-06-26T15:21:55;28.00;83.10
17815;DHT22;9031;50.974;11.330;2023-06-26T15:24:21;27.80;84.40
17815;DHT22;9031;50.974;11.330;2023-06-26T15:26:46;28.10;84.50
17815;DHT22;9031;50.974;11.330;2023-06-26T15:29:12;29.00;82.00
17815;DHT22;9031;50.974;11.330;2023-06-26T15:31:40;28.70;82.00
17815;DHT22;9031;50.974;11.330;2023-06-26T15:34:06;28.90;82.80
17815;DHT22;9031;50.974;11.330;2023-06-26T15:36:31;28.90;82.60
17815;DHT22;9031;50.974;11.330;2023-06-26T15:38:57;28.90;82.50
17815;DHT22;9031;50.974;11.330;2023-06-26T15:41:23;28.30;84.30